createdAt,value
2023-03-14T00:02:28.672Z,1.85
2023-03-14T00:05:16.330Z,1.86
2023-03-14T00:08:03.946Z,1.84
2023-03-14T00:10:51.610Z,1.75
2023-03-14T00:13:39.567Z,1.79
2023-03-14T00:16:28.990Z,1.63
2023-03-14T00:19:17.075Z,1.56
2023-03-14T00:22:04.801Z,1.27
2023-03-14T00:24:52.435Z,1.32
2023-03-14T00:27:40.438Z,1.05
2023-03-14T00:30:28.108Z,1.19
2023-03-14T00:33:15.800Z,1.02
2023-03-14T00:36:06.787Z,1.02
2023-03-14T00:38:54.618Z,0.92
2023-03-14T00:41:42.146Z,0.82
2023-03-14T00:44:29.897Z,1.01
2023-03-14T00:47:18.337Z,0.90
2023-03-14T00:50:06.632Z,0.83
2023-03-14T00:52:54.271Z,0.93
2023-03-14T00:55:46.164Z,0.89
2023-03-14T00:58:33.866Z,0.92
2023-03-14T01:01:24.318Z,0.79
2023-03-14T01:04:12.346Z,0.69
2023-03-14T01:06:59.993Z,0.55
2023-03-14T01:09:47.632Z,0.67
2023-03-14T01:12:36.179Z,0.61
2023-03-14T01:15:23.850Z,0.67
2023-03-14T01:18:11.643Z,0.46
2023-03-14T01:20:59.770Z,-0.01
2023-03-14T01:23:48.451Z,0.19
2023-03-14T01:26:36.744Z,0.17
2023-03-14T01:29:26.774Z,-0.44
2023-03-14T01:32:14.901Z,0.08
2023-03-14T01:35:02.643Z,-0.01
2023-03-14T01:37:51.272Z,-0.05
2023-03-14T01:40:46.126Z,-0.10
2023-03-14T01:43:34.892Z,-0.16
2023-03-14T01:46:45.469Z,-0.27
2023-03-14T01:49:37.600Z,-0.28
2023-03-14T01:52:36.398Z,-0.44
2023-03-14T01:55:26.946Z,-0.49
2023-03-14T01:58:16.097Z,-0.66
2023-03-14T02:01:05.577Z,-0.74
2023-03-14T02:03:57.569Z,-0.78
2023-03-14T02:06:52.747Z,-0.97
2023-03-14T02:09:45.335Z,-1.36
2023-03-14T02:12:40.448Z,-0.92
2023-03-14T02:15:34.404Z,-0.74
2023-03-14T02:18:27.644Z,-0.95
2023-03-14T02:22:13.904Z,-0.81
2023-03-14T02:25:17.142Z,-0.79
2023-03-14T02:28:05.837Z,-0.92
2023-03-14T02:30:54.693Z,-0.81
2023-03-14T02:33:42.572Z,-0.81
2023-03-14T02:36:31.420Z,-0.81
2023-03-14T02:39:29.257Z,-0.90
2023-03-14T02:42:17.988Z,-0.73
2023-03-14T02:45:08.904Z,-0.89
2023-03-14T02:48:07.652Z,-1.03
2023-03-14T02:51:00.172Z,-0.76
2023-03-14T02:53:48.866Z,-0.74
2023-03-14T02:56:39.655Z,-0.77
2023-03-14T02:59:28.653Z,-0.83
2023-03-14T03:02:19.918Z,-0.93
2023-03-14T03:05:07.813Z,-0.80
2023-03-14T03:07:55.628Z,-0.94
2023-03-14T03:10:43.228Z,-0.90
2023-03-14T03:13:30.981Z,-0.86
2023-03-14T03:16:20.112Z,-0.86
2023-03-14T03:19:07.953Z,-0.94
2023-03-14T03:21:55.559Z,-1.02
2023-03-14T03:24:50.416Z,-1.04
2023-03-14T03:27:39.400Z,-1.05
2023-03-14T03:30:27.137Z,-0.98
2023-03-14T03:33:15.065Z,-0.90
2023-03-14T03:36:06.002Z,-0.94
2023-03-14T03:38:57.112Z,-0.84
2023-03-14T03:41:45.560Z,-1.07
2023-03-14T03:44:33.610Z,-1.05
2023-03-14T03:47:22.454Z,-0.89
2023-03-14T03:50:11.055Z,-1.04
2023-03-14T03:52:58.892Z,-0.98
2023-03-14T03:55:47.082Z,-1.04
2023-03-14T03:58:35.232Z,-1.08
2023-03-14T04:01:23.827Z,-1.10
2023-03-14T04:04:15.231Z,-1.32
2023-03-14T04:07:06.223Z,-1.18
2023-03-14T04:09:53.974Z,-1.22
2023-03-14T04:13:04.318Z,-1.19
2023-03-14T04:15:55.534Z,-1.34
2023-03-14T04:18:46.297Z,-1.29
2023-03-14T04:21:34.252Z,-1.35
2023-03-14T04:24:22.368Z,-1.30
2023-03-14T04:27:11.282Z,-1.26
2023-03-14T04:29:58.995Z,-1.26
2023-03-14T04:33:05.616Z,-1.35
2023-03-14T04:35:56.734Z,-1.37
2023-03-14T04:38:45.674Z,-1.23
2023-03-14T04:49:56.875Z,-1.74
2023-03-14T04:52:46.049Z,-1.01
2023-03-14T04:55:34.339Z,-1.08
2023-03-14T04:58:24.082Z,-1.01
2023-03-14T05:01:13.855Z,-0.96
2023-03-14T05:04:09.541Z,-0.93
2023-03-14T05:07:13.838Z,-0.76
2023-03-14T05:10:16.315Z,-0.73
2023-03-14T05:13:29.319Z,-0.73
2023-03-14T05:16:39.999Z,-0.84
2023-03-14T05:19:38.484Z,-0.52
2023-03-14T05:22:46.567Z,-0.54
2023-03-14T05:25:54.403Z,-0.43
2023-03-14T05:29:02.347Z,-0.33
2023-03-14T05:32:00.045Z,-0.12
2023-03-14T05:35:06.771Z,0.88
2023-03-14T05:38:16.861Z,2.60
2023-03-14T05:41:27.550Z,3.78
2023-03-14T05:44:41.295Z,4.50
2023-03-14T05:47:35.204Z,4.55
2023-03-14T05:50:58.607Z,4.54
2023-03-14T05:53:58.984Z,4.93
2023-03-14T05:57:19.157Z,4.66
2023-03-14T06:00:26.197Z,5.09
2023-03-14T06:03:34.671Z,5.54
2023-03-14T06:06:22.524Z,5.63
2023-03-14T06:09:12.671Z,5.94
2023-03-14T06:12:03.667Z,6.20
2023-03-14T06:14:57.029Z,6.58
2023-03-14T06:17:44.882Z,6.33
2023-03-14T06:20:36.392Z,5.70
2023-03-14T06:23:24.896Z,6.50
2023-03-14T06:26:12.999Z,7.40
2023-03-14T06:29:04.566Z,7.48
2023-03-14T06:31:53.924Z,6.80
2023-03-14T06:34:42.034Z,7.05
2023-03-14T06:37:30.600Z,7.35
2023-03-14T06:40:19.610Z,6.80
2023-03-14T06:43:27.429Z,7.17
2023-03-14T06:46:17.031Z,7.48
2023-03-14T06:49:07.226Z,7.09
2023-03-14T06:51:55.047Z,7.19
2023-03-14T06:54:42.975Z,7.78
2023-03-14T06:57:30.916Z,6.42
2023-03-14T07:00:19.201Z,6.14
2023-03-14T07:03:07.360Z,6.78
2023-03-14T07:05:59.216Z,6.81
2023-03-14T07:08:49.753Z,7.08
2023-03-14T07:11:38.733Z,7.43
2023-03-14T07:14:26.636Z,7.60
2023-03-14T07:17:15.101Z,8.57
2023-03-14T07:20:07.384Z,8.66
2023-03-14T07:22:56.138Z,8.78
2023-03-14T07:25:56.234Z,8.48
2023-03-14T07:28:46.724Z,8.99
2023-03-14T07:31:38.233Z,8.46
2023-03-14T07:34:28.480Z,9.22
2023-03-14T07:37:18.042Z,9.58
2023-03-14T07:40:08.438Z,9.40
2023-03-14T07:42:58.724Z,9.62
2023-03-14T07:46:02.209Z,9.75
2023-03-14T07:48:50.084Z,10.14
2023-03-14T07:51:37.832Z,10.43
2023-03-14T07:54:28.360Z,10.21
2023-03-14T07:57:18.686Z,10.44
2023-03-14T08:00:07.193Z,9.74
2023-03-14T08:03:00.735Z,10.74
2023-03-14T08:05:49.459Z,10.98
2023-03-14T08:08:37.016Z,10.87
2023-03-14T08:11:24.794Z,10.89
2023-03-14T08:14:12.577Z,11.09
2023-03-14T08:17:00.343Z,11.01
2023-03-14T08:19:48.429Z,12.03
2023-03-14T08:22:36.145Z,12.36
2023-03-14T08:25:23.905Z,13.07
2023-03-14T08:28:11.692Z,13.60
2023-03-14T08:30:59.441Z,13.94
2023-03-14T08:33:47.118Z,13.31
2023-03-14T08:36:35.276Z,12.98
2023-03-14T08:39:23.084Z,13.61
2023-03-14T08:42:10.800Z,13.22
2023-03-14T08:44:58.509Z,12.14
2023-03-14T08:47:46.488Z,13.19
2023-03-14T08:50:35.203Z,12.71
2023-03-14T08:53:23.830Z,13.33
2023-03-14T08:56:11.651Z,13.53
2023-03-14T08:58:59.350Z,13.89
2023-03-14T09:01:46.996Z,14.68
2023-03-14T09:04:34.780Z,13.88
2023-03-14T09:07:22.550Z,14.41
2023-03-14T09:10:11.102Z,15.02
2023-03-14T09:12:59.547Z,15.41
2023-03-14T09:15:52.324Z,15.81
2023-03-14T09:18:40.041Z,15.80
2023-03-14T09:21:28.790Z,15.60
2023-03-14T09:24:17.613Z,15.39
2023-03-14T09:27:09.663Z,15.74
2023-03-14T09:29:57.217Z,15.74
2023-03-14T09:32:45.238Z,15.41
2023-03-14T09:35:35.853Z,16.32
2023-03-14T09:38:24.423Z,16.29
2023-03-14T09:41:43.195Z,16.35
2023-03-14T09:44:33.976Z,15.89
2023-03-14T09:47:22.786Z,16.28
2023-03-14T09:50:19.052Z,16.58
2023-03-14T09:53:13.437Z,16.94
2023-03-14T09:56:01.055Z,16.64
2023-03-14T09:59:01.381Z,16.89
2023-03-14T10:01:49.119Z,16.55
2023-03-14T10:04:37.443Z,16.44
2023-03-14T10:07:34.626Z,16.08
2023-03-14T10:10:26.157Z,16.75
2023-03-14T10:13:27.235Z,16.99
2023-03-14T10:16:20.068Z,17.18
2023-03-14T10:19:21.259Z,17.02
2023-03-14T10:22:34.941Z,17.82
2023-03-14T10:25:30.054Z,17.12
2023-03-14T10:28:32.264Z,16.83
2023-03-14T10:31:22.868Z,17.15
2023-03-14T10:34:18.148Z,17.08
2023-03-14T10:37:28.814Z,17.44
2023-03-14T10:40:18.782Z,17.22
2023-03-14T10:43:16.753Z,18.02
2023-03-14T10:46:15.770Z,18.04
2023-03-14T10:53:05.048Z,17.75
2023-03-14T10:55:57.897Z,18.07
2023-03-14T10:58:48.292Z,18.30
2023-03-14T11:01:42.083Z,17.90
2023-03-14T11:04:37.219Z,17.99
2023-03-14T11:07:45.929Z,17.64
2023-03-14T11:10:44.280Z,17.56
2023-03-14T11:13:38.442Z,17.75
2023-03-14T11:16:56.584Z,17.93
2023-03-14T11:19:53.297Z,17.72
2023-03-14T11:23:02.469Z,17.93
2023-03-14T11:26:01.011Z,18.07
2023-03-14T11:28:58.558Z,18.28
2023-03-14T11:31:47.690Z,18.27
2023-03-14T11:34:49.362Z,18.09
2023-03-14T11:37:49.275Z,18.69
2023-03-14T11:40:40.591Z,18.22
2023-03-14T11:43:38.338Z,18.46
2023-03-14T11:47:00.636Z,18.15
2023-03-14T11:50:09.112Z,18.19
2023-03-14T11:53:05.882Z,18.39
2023-03-14T11:55:55.003Z,18.28
2023-03-14T11:58:56.175Z,18.62
2023-03-14T12:01:55.076Z,18.65
2023-03-14T12:04:51.605Z,18.55
2023-03-14T12:08:12.469Z,18.68
2023-03-14T12:11:05.945Z,18.59
2023-03-14T12:13:54.807Z,18.90
2023-03-14T12:16:47.058Z,19.27
2023-03-14T12:19:37.782Z,18.77
2023-03-14T12:22:43.093Z,18.29
2023-03-14T12:25:34.722Z,18.65
2023-03-14T12:28:32.632Z,18.85
2023-03-14T12:31:32.695Z,18.91
2023-03-14T12:34:20.764Z,18.01
2023-03-14T12:37:34.439Z,18.08
2023-03-14T12:40:32.874Z,18.32
2023-03-14T12:43:30.119Z,18.02
2023-03-14T12:46:29.095Z,17.79
2023-03-14T12:49:16.976Z,17.81
2023-03-14T12:52:20.451Z,17.75
2023-03-14T12:55:42.093Z,17.65
2023-03-14T12:58:36.496Z,17.80
2023-03-14T13:01:24.181Z,17.97
2023-03-14T13:04:13.411Z,17.91
2023-03-14T13:07:03.785Z,18.25
2023-03-14T13:09:55.950Z,18.17
2023-03-14T13:12:56.790Z,18.10
2023-03-14T13:15:47.419Z,17.84
2023-03-14T13:18:43.532Z,18.13
2023-03-14T13:21:36.627Z,18.24
2023-03-14T13:24:27.386Z,18.21
2023-03-14T13:27:22.901Z,17.84
2023-03-14T13:30:21.916Z,17.77
2023-03-14T13:33:18.427Z,17.74
2023-03-14T13:36:07.298Z,17.51
2023-03-14T13:39:00.575Z,17.14
2023-03-14T13:41:49.613Z,17.02
2023-03-14T13:44:42.410Z,17.19
2023-03-14T13:47:30.949Z,17.07
2023-03-14T13:50:19.912Z,17.05
2023-03-14T13:53:12.769Z,17.10
2023-03-14T13:56:04.938Z,16.96
2023-03-14T13:58:53.666Z,16.79
2023-03-14T14:01:49.623Z,16.93
2023-03-14T14:04:38.696Z,16.74
2023-03-14T14:07:26.489Z,16.82
2023-03-14T14:10:15.158Z,16.88
2023-03-14T14:13:05.216Z,16.63
2023-03-14T14:15:55.834Z,16.63
2023-03-14T14:18:43.706Z,16.80
2023-03-14T14:21:32.941Z,16.68
2023-03-14T14:24:24.900Z,16.65
2023-03-14T14:27:17.985Z,16.74
2023-03-14T14:30:25.801Z,16.52
2023-03-14T14:33:23.596Z,16.62
2023-03-14T14:36:22.062Z,16.59
2023-03-14T14:39:22.831Z,16.54
2023-03-14T14:42:19.885Z,16.44
2023-03-14T14:45:16.548Z,16.29
2023-03-14T14:48:11.717Z,16.23
2023-03-14T14:51:05.143Z,16.21
2023-03-14T14:54:20.696Z,16.01
2023-03-14T14:57:19.752Z,15.91
2023-03-14T15:00:13.717Z,15.70
2023-03-14T15:03:01.810Z,15.78
2023-03-14T15:05:49.690Z,15.75
2023-03-14T15:08:39.225Z,15.27
2023-03-14T15:11:28.058Z,15.60
2023-03-14T15:14:15.828Z,15.62
2023-03-14T15:17:04.169Z,15.53
2023-03-14T15:19:51.810Z,15.20
2023-03-14T15:22:39.433Z,15.34
2023-03-14T15:25:51.532Z,15.42
2023-03-14T15:28:35.908Z,15.01
2023-03-14T15:31:24.015Z,15.06
2023-03-14T15:34:11.756Z,14.93
2023-03-14T15:36:59.426Z,14.65
2023-03-14T15:39:47.184Z,14.67
2023-03-14T15:42:34.943Z,14.60
2023-03-14T15:45:22.637Z,14.50
2023-03-14T15:48:22.430Z,14.36
2023-03-14T15:51:10.079Z,14.20
2023-03-14T15:53:57.990Z,14.00
2023-03-14T15:56:45.845Z,13.90
2023-03-14T15:59:33.707Z,13.79
2023-03-14T16:02:21.350Z,13.82
2023-03-14T16:05:13.480Z,13.57
2023-03-14T16:08:02.543Z,13.53
2023-03-14T16:10:50.363Z,13.45
2023-03-14T16:13:39.069Z,13.27
2023-03-14T16:16:26.760Z,13.07
2023-03-14T16:19:14.601Z,13.05
2023-03-14T16:22:02.377Z,13.06
2023-03-14T16:24:52.331Z,12.97
2023-03-14T16:27:40.211Z,12.76
2023-03-14T16:30:27.997Z,12.60
2023-03-14T16:33:17.086Z,12.30
2023-03-14T16:36:08.800Z,12.13
2023-03-14T16:38:56.611Z,12.21
2023-03-14T16:41:50.492Z,12.09
2023-03-14T16:44:38.162Z,11.98
2023-03-14T16:47:25.997Z,11.82
2023-03-14T16:50:16.307Z,11.79
2023-03-14T16:53:03.957Z,11.73
2023-03-14T16:55:52.001Z,11.81
2023-03-14T16:58:40.243Z,11.55
2023-03-14T17:01:27.983Z,11.55
2023-03-14T17:04:15.947Z,11.38
2023-03-14T17:07:03.851Z,11.20
2023-03-14T17:09:52.087Z,11.23
2023-03-14T17:12:39.801Z,10.92
2023-03-14T17:15:27.444Z,10.82
2023-03-14T17:18:15.168Z,10.83
2023-03-14T17:21:03.887Z,10.68
2023-03-14T17:23:51.751Z,10.60
2023-03-14T17:26:39.409Z,10.30
2023-03-14T17:29:27.051Z,10.41
2023-03-14T17:32:16.130Z,10.47
2023-03-14T17:35:04.097Z,10.69
2023-03-14T17:37:51.961Z,10.50
2023-03-14T17:40:39.806Z,10.28
2023-03-14T17:43:27.649Z,10.28
2023-03-14T17:46:17.188Z,10.27
2023-03-14T17:49:04.965Z,10.09
2023-03-14T17:51:52.873Z,10.15
2023-03-14T17:54:40.898Z,10.14
2023-03-14T17:57:29.434Z,10.13
2023-03-14T18:00:17.985Z,10.12
2023-03-14T18:03:06.329Z,10.27
2023-03-14T18:05:57.077Z,10.18
2023-03-14T18:08:46.771Z,10.17
2023-03-14T18:11:34.548Z,10.23
2023-03-14T18:14:22.213Z,10.14
2023-03-14T18:17:12.987Z,9.93
2023-03-14T18:20:00.780Z,9.77
2023-03-14T18:22:48.528Z,9.66
2023-03-14T18:25:36.243Z,9.66
2023-03-14T18:28:23.944Z,9.53
2023-03-14T18:31:13.575Z,9.50
2023-03-14T18:34:01.884Z,9.26
2023-03-14T18:36:50.022Z,9.63
2023-03-14T18:39:37.746Z,9.48
2023-03-14T18:42:25.597Z,9.42
2023-03-14T18:45:13.735Z,9.37
2023-03-14T18:48:02.332Z,9.19
2023-03-14T18:51:15.415Z,8.70
2023-03-14T18:54:09.572Z,9.02
2023-03-14T18:57:00.532Z,9.01
2023-03-14T18:59:48.420Z,8.88
2023-03-14T19:02:39.063Z,8.97
2023-03-14T19:05:37.418Z,8.83
2023-03-14T19:08:42.398Z,8.87
2023-03-14T19:11:30.083Z,8.97
2023-03-14T19:14:20.434Z,8.93
2023-03-14T19:17:08.133Z,8.94
2023-03-14T19:19:57.093Z,8.89
2023-03-14T19:22:47.810Z,8.60
2023-03-14T19:25:35.821Z,8.61
2023-03-14T19:28:24.544Z,8.58
2023-03-14T19:31:12.254Z,8.57
2023-03-14T19:34:00.114Z,8.47
2023-03-14T19:36:47.825Z,8.22
2023-03-14T19:39:35.579Z,8.47
2023-03-14T19:42:23.261Z,8.48
2023-03-14T19:45:11.967Z,8.34
2023-03-14T19:48:04.322Z,8.40
2023-03-14T19:50:52.046Z,8.46
2023-03-14T19:53:39.965Z,8.16
2023-03-14T19:56:27.690Z,8.24
2023-03-14T19:59:15.480Z,8.02
2023-03-14T20:02:03.312Z,7.92
2023-03-14T20:04:54.700Z,8.04
2023-03-14T20:07:42.984Z,7.90
2023-03-14T20:10:31.148Z,7.69
2023-03-14T20:13:22.275Z,7.52
2023-03-14T20:16:10.939Z,7.22
2023-03-14T20:18:58.680Z,7.29
2023-03-14T20:21:46.413Z,7.19
2023-03-14T20:24:34.383Z,6.98
2023-03-14T20:27:22.122Z,7.16
2023-03-14T20:30:13.111Z,6.94
2023-03-14T20:33:04.849Z,6.89
2023-03-14T20:35:57.747Z,6.83
2023-03-14T20:38:45.432Z,6.68
2023-03-14T20:41:33.218Z,6.23
2023-03-14T20:44:20.953Z,6.47
2023-03-14T20:47:08.683Z,6.43
2023-03-14T20:49:56.621Z,6.23
2023-03-14T20:52:45.513Z,6.27
2023-03-14T20:55:33.216Z,6.18
2023-03-14T20:58:20.826Z,6.10
2023-03-14T21:01:09.278Z,6.00
2023-03-14T21:03:57.023Z,6.02
2023-03-14T21:06:46.245Z,6.01
2023-03-14T21:09:34.067Z,5.96
2023-03-14T21:12:24.866Z,5.99
2023-03-14T21:15:15.495Z,6.10
2023-03-14T21:18:05.890Z,6.02
2023-03-14T21:20:55.209Z,5.86
2023-03-14T21:23:45.098Z,5.88
2023-03-14T21:26:33.064Z,5.84
2023-03-14T21:29:21.861Z,5.60
2023-03-14T21:32:10.961Z,5.70
2023-03-14T21:34:58.793Z,5.79
2023-03-14T21:37:46.682Z,5.78
2023-03-14T21:40:34.628Z,5.86
2023-03-14T21:43:27.134Z,5.70
2023-03-14T21:46:20.579Z,5.72
2023-03-14T21:49:11.480Z,5.82
2023-03-14T21:51:59.079Z,5.96
2023-03-14T21:54:51.958Z,6.07
2023-03-14T21:57:42.022Z,6.18
2023-03-14T22:00:29.802Z,6.03
2023-03-14T22:03:19.153Z,6.12
2023-03-14T22:06:08.422Z,6.07
2023-03-14T22:08:56.163Z,6.11
2023-03-14T22:11:43.973Z,5.81
2023-03-14T22:14:31.787Z,5.40
2023-03-14T22:17:20.653Z,5.40
2023-03-14T22:20:10.830Z,5.22
2023-03-14T22:22:58.568Z,5.06
2023-03-14T22:25:49.880Z,5.05
2023-03-14T22:28:37.650Z,4.75
2023-03-14T22:31:25.274Z,4.88
2023-03-14T22:34:13.023Z,4.98
2023-03-14T22:37:02.482Z,4.84
2023-03-14T22:39:50.149Z,4.81
2023-03-14T22:42:40.079Z,4.65
2023-03-14T22:45:28.242Z,4.49
2023-03-14T22:48:16.010Z,4.44
2023-03-14T22:51:11.736Z,4.19
2023-03-14T22:53:59.520Z,4.27
2023-03-14T22:56:47.209Z,4.23
2023-03-14T22:59:35.128Z,4.18
2023-03-14T23:02:22.873Z,4.22
2023-03-14T23:05:10.844Z,4.16
2023-03-14T23:07:58.539Z,4.18
2023-03-14T23:10:46.811Z,4.18
2023-03-14T23:13:35.409Z,4.22
2023-03-14T23:16:34.165Z,4.21
2023-03-14T23:19:29.283Z,4.35
2023-03-14T23:22:16.983Z,4.26
2023-03-14T23:25:05.103Z,4.06
2023-03-14T23:27:54.390Z,3.96
2023-03-14T23:30:42.149Z,3.93
2023-03-14T23:33:29.865Z,3.88
2023-03-14T23:36:22.481Z,3.92
2023-03-14T23:39:11.390Z,3.87
2023-03-14T23:41:59.083Z,3.78
2023-03-14T23:44:46.903Z,3.54
2023-03-14T23:47:34.874Z,3.58
2023-03-14T23:50:25.698Z,3.66
2023-03-14T23:53:13.781Z,3.37
2023-03-14T23:56:01.662Z,3.44
2023-03-14T23:58:51.619Z,3.32
